createdAt,value
2019-03-21T00:00:20.830Z,1.10
2019-03-21T00:03:06.973Z,0.90
2019-03-21T00:05:53.383Z,0.80
2019-03-21T00:08:39.620Z,0.80
2019-03-21T00:11:44.235Z,1.00
2019-03-21T00:14:35.549Z,0.90
2019-03-21T00:17:23.293Z,1.00
2019-03-21T00:20:11.004Z,0.77
2019-03-21T00:22:57.378Z,0.90
2019-03-21T00:25:43.756Z,0.70
2019-03-21T00:28:30.174Z,1.50
2019-03-21T00:31:16.596Z,0.80
2019-03-21T00:34:02.857Z,0.80
2019-03-21T00:36:49.359Z,0.77
2019-03-21T00:39:35.609Z,0.97
2019-03-21T00:42:21.981Z,0.73
2019-03-21T00:45:08.992Z,0.80
2019-03-21T00:47:55.570Z,0.90
2019-03-21T00:50:42.200Z,0.90
2019-03-21T00:53:28.562Z,1.10
2019-03-21T00:56:14.836Z,0.80
2019-03-21T00:59:01.311Z,1.00
2019-03-21T01:01:47.659Z,0.80
2019-03-21T01:04:33.988Z,0.90
2019-03-21T01:07:20.392Z,0.90
2019-03-21T01:10:07.697Z,0.80
2019-03-21T01:12:54.090Z,1.13
2019-03-21T01:15:40.516Z,0.90
2019-03-21T01:18:26.819Z,0.80
2019-03-21T01:21:12.957Z,0.90
2019-03-21T01:23:59.521Z,0.93
2019-03-21T01:26:45.899Z,0.90
2019-03-21T01:29:32.063Z,1.23
2019-03-21T01:32:18.676Z,1.30
2019-03-21T01:35:04.900Z,1.03
2019-03-21T01:37:51.251Z,0.70
2019-03-21T01:40:38.197Z,1.67
2019-03-21T01:43:24.344Z,1.03
2019-03-21T01:46:11.097Z,1.00
2019-03-21T01:48:57.457Z,1.10
2019-03-21T01:51:43.731Z,1.10
2019-03-21T01:54:30.077Z,0.90
2019-03-21T01:57:16.328Z,1.23
2019-03-21T02:00:03.142Z,1.23
2019-03-21T02:02:50.101Z,1.03
2019-03-21T02:05:36.300Z,1.23
2019-03-21T02:08:22.604Z,1.10
2019-03-21T02:11:08.871Z,1.10
2019-03-21T02:13:55.163Z,1.07
2019-03-21T02:16:41.489Z,1.43
2019-03-21T02:19:28.027Z,1.10
2019-03-21T02:22:14.300Z,1.23
2019-03-21T02:25:00.648Z,1.10
2019-03-21T02:27:47.057Z,1.50
2019-03-21T02:30:33.827Z,1.20
2019-03-21T02:33:21.617Z,1.43
2019-03-21T02:36:08.452Z,1.03
2019-03-21T02:38:54.736Z,1.27
2019-03-21T02:41:41.003Z,1.27
2019-03-21T02:44:27.293Z,1.07
2019-03-21T02:47:13.865Z,1.27
2019-03-21T02:50:00.452Z,1.30
2019-03-21T02:52:46.960Z,1.10
2019-03-21T02:55:33.340Z,1.20
2019-03-21T02:58:19.603Z,1.20
2019-03-21T03:01:06.030Z,1.33
2019-03-21T03:03:52.317Z,1.30
2019-03-21T03:06:38.709Z,1.97
2019-03-21T03:09:25.065Z,1.20
2019-03-21T03:12:11.440Z,1.47
2019-03-21T03:14:57.833Z,2.10
2019-03-21T03:17:44.043Z,1.37
2019-03-21T03:20:30.361Z,1.47
2019-03-21T03:23:16.747Z,1.53
2019-03-21T03:26:03.012Z,1.07
2019-03-21T03:28:49.316Z,1.20
2019-03-21T03:31:35.793Z,1.43
2019-03-21T03:34:22.024Z,1.77
2019-03-21T03:37:08.355Z,1.50
2019-03-21T03:39:54.748Z,1.33
2019-03-21T03:42:40.997Z,1.47
2019-03-21T03:45:37.507Z,1.33
2019-03-21T03:48:19.714Z,1.97
2019-03-21T03:51:05.284Z,1.50
2019-03-21T03:53:51.584Z,1.87
2019-03-21T03:56:37.898Z,1.50
2019-03-21T03:59:24.088Z,1.60
2019-03-21T04:02:10.292Z,2.10
2019-03-21T04:04:56.703Z,1.70
2019-03-21T04:07:42.922Z,2.03
2019-03-21T04:10:30.553Z,1.60
2019-03-21T04:13:17.016Z,2.03
2019-03-21T04:16:03.312Z,1.77
2019-03-21T04:18:49.675Z,1.90
2019-03-21T04:21:36.221Z,1.67
2019-03-21T04:24:27.470Z,2.23
2019-03-21T04:27:13.744Z,1.80
2019-03-21T04:30:00.180Z,1.80
2019-03-21T04:32:47.131Z,1.60
2019-03-21T04:35:33.364Z,1.70
2019-03-21T04:38:19.618Z,1.80
2019-03-21T04:41:05.966Z,2.03
2019-03-21T04:43:52.324Z,1.87
2019-03-21T04:46:38.566Z,1.67
2019-03-21T04:49:25.067Z,1.70
2019-03-21T04:52:11.328Z,2.23
2019-03-21T04:54:57.627Z,1.90
2019-03-21T04:57:43.955Z,1.90
2019-03-21T05:00:30.797Z,2.30
2019-03-21T05:03:17.083Z,1.93
2019-03-21T05:06:03.321Z,1.50
2019-03-21T05:08:49.596Z,1.70
2019-03-21T05:11:36.099Z,1.67
2019-03-21T05:14:22.295Z,1.83
2019-03-21T05:17:08.627Z,1.80
2019-03-21T05:19:55.040Z,1.80
2019-03-21T05:22:41.379Z,1.90
2019-03-21T05:25:27.692Z,1.53
2019-03-21T05:28:14.100Z,1.90
2019-03-21T05:31:05.620Z,2.17
2019-03-21T05:33:51.989Z,1.63
2019-03-21T05:36:38.367Z,2.10
2019-03-21T05:39:24.663Z,1.80
2019-03-21T05:42:13.469Z,2.43
2019-03-21T05:44:59.824Z,2.23
2019-03-21T05:47:46.271Z,1.83
2019-03-21T05:50:32.584Z,2.80
2019-03-21T05:53:18.986Z,2.63
2019-03-21T05:56:05.592Z,2.20
2019-03-21T05:58:53.308Z,2.60
2019-03-21T06:01:39.593Z,2.23
2019-03-21T06:04:26.004Z,2.47
2019-03-21T06:07:17.705Z,2.37
2019-03-21T06:10:05.667Z,3.03
2019-03-21T06:12:51.680Z,2.20
2019-03-21T06:15:38.233Z,2.73
2019-03-21T06:18:46.526Z,2.60
2019-03-21T06:21:38.584Z,2.43
2019-03-21T06:24:36.996Z,2.90
2019-03-21T06:27:31.967Z,2.40
2019-03-21T06:30:17.995Z,2.90
2019-03-21T06:33:04.430Z,2.43
2019-03-21T06:35:50.710Z,2.50
2019-03-21T06:38:36.992Z,2.50
2019-03-21T06:41:23.359Z,2.90
2019-03-21T06:44:09.611Z,2.63
2019-03-21T06:46:56.045Z,3.03
2019-03-21T06:49:42.296Z,2.60
2019-03-21T06:52:28.559Z,3.17
2019-03-21T06:55:14.932Z,2.20
2019-03-21T06:58:01.204Z,2.67
2019-03-21T07:00:47.446Z,2.83
2019-03-21T07:03:33.968Z,3.10
2019-03-21T07:06:20.211Z,2.97
2019-03-21T07:09:06.740Z,2.43
2019-03-21T07:11:53.024Z,2.90
2019-03-21T07:14:39.284Z,2.57
2019-03-21T07:17:25.660Z,3.27
2019-03-21T07:20:12.451Z,2.57
2019-03-21T07:22:58.848Z,2.50
2019-03-21T07:25:45.207Z,2.50
2019-03-21T07:28:31.511Z,2.90
2019-03-21T07:31:17.823Z,2.97
2019-03-21T07:34:04.100Z,2.87
2019-03-21T07:36:50.491Z,2.93
2019-03-21T07:39:36.748Z,2.50
2019-03-21T07:42:23.145Z,2.60
2019-03-21T07:45:09.475Z,2.57
2019-03-21T07:47:55.646Z,2.33
2019-03-21T07:50:46.391Z,2.80
2019-03-21T07:53:32.801Z,2.67
2019-03-21T07:56:19.112Z,2.43
2019-03-21T07:59:05.505Z,2.70
2019-03-21T08:01:51.750Z,2.30
2019-03-21T08:04:38.037Z,2.87
2019-03-21T08:07:24.402Z,2.63
2019-03-21T08:10:11.536Z,2.73
2019-03-21T08:12:58.143Z,2.27
2019-03-21T08:15:44.240Z,2.47
2019-03-21T08:18:30.482Z,3.00
2019-03-21T08:21:16.763Z,2.60
2019-03-21T08:24:03.227Z,2.53
2019-03-21T08:26:49.523Z,2.77
2019-03-21T08:29:35.938Z,2.50
2019-03-21T08:32:22.203Z,2.50
2019-03-21T08:35:08.608Z,2.37
2019-03-21T08:37:54.844Z,3.03
2019-03-21T08:40:42.688Z,2.50
2019-03-21T08:43:29.127Z,2.40
2019-03-21T08:46:15.342Z,2.03
2019-03-21T08:49:01.855Z,2.00
2019-03-21T08:51:48.200Z,2.30
2019-03-21T08:54:35.078Z,2.10
2019-03-21T08:57:21.595Z,2.40
2019-03-21T09:00:07.784Z,2.27
2019-03-21T09:02:54.064Z,2.57
2019-03-21T09:05:40.488Z,2.40
2019-03-21T09:08:26.663Z,1.93
2019-03-21T09:11:12.982Z,2.27
2019-03-21T09:13:59.327Z,2.23
2019-03-21T09:16:45.580Z,2.17
2019-03-21T09:19:31.942Z,2.53
2019-03-21T09:22:18.248Z,1.90
2019-03-21T09:25:05.008Z,2.00
2019-03-21T09:28:01.956Z,2.40
2019-03-21T09:30:39.883Z,2.33
2019-03-21T09:33:26.133Z,2.07
2019-03-21T09:36:12.452Z,1.67
2019-03-21T09:38:58.757Z,1.80
2019-03-21T09:41:45.001Z,2.00
2019-03-21T09:44:31.451Z,1.90
2019-03-21T09:47:17.707Z,2.30
2019-03-21T09:50:04.318Z,2.00
2019-03-21T09:52:51.029Z,1.90
2019-03-21T09:55:37.228Z,2.30
2019-03-21T09:58:23.376Z,2.03
2019-03-21T10:01:09.884Z,2.30
2019-03-21T10:03:56.148Z,1.90
2019-03-21T10:06:42.617Z,1.97
2019-03-21T10:09:28.928Z,2.30
2019-03-21T10:12:15.204Z,2.00
2019-03-21T10:15:01.554Z,1.73
2019-03-21T10:17:47.969Z,1.97
2019-03-21T10:20:34.160Z,1.73
2019-03-21T10:23:23.143Z,1.70
2019-03-21T10:26:09.528Z,2.17
2019-03-21T10:28:55.772Z,1.50
2019-03-21T10:31:42.079Z,2.07
2019-03-21T10:34:28.645Z,1.93
2019-03-21T10:37:14.836Z,2.00
2019-03-21T10:40:01.273Z,2.23
2019-03-21T10:42:47.504Z,1.80
2019-03-21T10:45:33.896Z,1.53
2019-03-21T10:48:20.136Z,2.07
2019-03-21T10:51:06.348Z,1.80
2019-03-21T10:53:52.540Z,1.50
2019-03-21T10:56:39.027Z,1.80
2019-03-21T10:59:25.307Z,1.80
2019-03-21T11:02:11.582Z,1.93
2019-03-21T11:04:58.082Z,1.90
2019-03-21T11:07:44.529Z,1.90
2019-03-21T11:10:30.780Z,2.03
2019-03-21T11:13:17.147Z,1.83
2019-03-21T11:16:03.360Z,1.50
2019-03-21T11:18:49.795Z,1.93
2019-03-21T11:21:36.229Z,1.80
2019-03-21T11:24:22.528Z,1.87
2019-03-21T11:27:11.503Z,1.80
2019-03-21T11:29:58.249Z,1.80
2019-03-21T11:32:44.491Z,1.90
2019-03-21T11:35:33.060Z,2.00
2019-03-21T11:38:19.195Z,1.80
2019-03-21T11:41:05.458Z,1.97
2019-03-21T11:43:51.823Z,1.87
2019-03-21T11:46:38.234Z,1.53
2019-03-21T11:49:24.501Z,1.57
2019-03-21T11:52:18.167Z,1.60
2019-03-21T11:54:58.946Z,1.77
2019-03-21T11:57:45.139Z,1.70
2019-03-21T12:00:42.969Z,1.77
2019-03-21T12:03:19.289Z,1.80
2019-03-21T12:06:05.540Z,1.60
2019-03-21T12:08:51.735Z,1.60
2019-03-21T12:11:38.288Z,1.60
2019-03-21T12:14:24.480Z,1.70
2019-03-21T12:17:12.773Z,1.57
2019-03-21T12:19:58.915Z,1.73
2019-03-21T12:22:47.248Z,1.70
2019-03-21T12:25:33.419Z,1.80
2019-03-21T12:28:19.797Z,1.60
2019-03-21T12:31:05.947Z,1.63
2019-03-21T12:33:52.287Z,1.70
2019-03-21T12:36:38.648Z,1.50
2019-03-21T12:39:24.860Z,1.67
2019-03-21T12:42:11.323Z,1.73
2019-03-21T12:44:57.749Z,2.00
2019-03-21T12:47:44.041Z,2.30
2019-03-21T12:50:12.135Z,2.10
2019-03-21T12:52:41.533Z,2.07
2019-03-21T12:55:10.458Z,1.77
2019-03-21T12:57:38.869Z,1.80
2019-03-21T13:00:07.216Z,2.10
2019-03-21T13:02:35.532Z,1.93
2019-03-21T13:05:04.882Z,2.17
2019-03-21T13:07:32.994Z,2.27
2019-03-21T13:10:01.312Z,2.10
2019-03-21T13:12:29.448Z,2.23
2019-03-21T13:14:57.677Z,2.00
2019-03-21T13:17:26.100Z,2.23
2019-03-21T13:19:54.109Z,2.10
2019-03-21T13:22:22.236Z,2.03
2019-03-21T13:24:50.652Z,1.77
2019-03-21T13:27:18.980Z,1.73
2019-03-21T13:29:47.420Z,1.97
2019-03-21T13:32:15.452Z,1.97
2019-03-21T13:34:43.590Z,2.10
2019-03-21T13:37:11.614Z,2.03
2019-03-21T13:39:39.915Z,2.03
2019-03-21T13:42:08.024Z,1.93
2019-03-21T13:44:36.124Z,2.33
2019-03-21T13:47:05.467Z,1.97
2019-03-21T13:49:33.787Z,2.00
2019-03-21T13:52:04.586Z,1.90
2019-03-21T13:54:31.840Z,2.10
2019-03-21T13:56:59.896Z,1.70
2019-03-21T13:59:28.201Z,1.80
2019-03-21T14:01:56.557Z,2.03
2019-03-21T14:04:25.050Z,1.90
2019-03-21T14:06:53.259Z,1.80
2019-03-21T14:09:21.336Z,1.90
2019-03-21T14:11:49.664Z,1.77
2019-03-21T14:14:17.776Z,1.67
2019-03-21T14:16:45.916Z,1.70
2019-03-21T14:19:14.190Z,1.67
2019-03-21T14:21:42.620Z,1.70
2019-03-21T14:24:10.932Z,1.40
2019-03-21T14:26:39.058Z,1.47
2019-03-21T14:29:12.558Z,1.80
2019-03-21T14:31:37.112Z,1.70
2019-03-21T14:34:05.472Z,2.07
2019-03-21T14:36:34.080Z,1.90
2019-03-21T14:39:03.704Z,1.73
2019-03-21T14:41:31.856Z,1.70
2019-03-21T14:43:59.888Z,1.63
2019-03-21T14:46:28.200Z,1.90
2019-03-21T14:48:56.316Z,1.70
2019-03-21T14:51:24.654Z,1.33
2019-03-21T14:53:52.819Z,1.60
2019-03-21T14:56:20.897Z,1.70
2019-03-21T14:58:48.908Z,1.33
2019-03-21T15:01:16.936Z,1.50
2019-03-21T15:03:45.059Z,1.57
2019-03-21T15:06:13.317Z,1.47
2019-03-21T15:08:42.012Z,1.27
2019-03-21T15:11:16.949Z,1.57
2019-03-21T15:13:40.038Z,1.67
2019-03-21T15:16:08.475Z,1.53
2019-03-21T15:18:36.793Z,1.60
2019-03-21T15:21:05.189Z,1.73
2019-03-21T15:23:40.752Z,1.63
2019-03-21T15:26:03.604Z,1.40
2019-03-21T15:28:31.948Z,1.73
2019-03-21T15:31:00.311Z,1.60
2019-03-21T15:33:28.523Z,1.47
2019-03-21T15:35:56.735Z,1.73
2019-03-21T15:38:27.596Z,1.63
2019-03-21T15:40:55.340Z,1.57
2019-03-21T15:43:23.673Z,1.57
2019-03-21T15:45:52.114Z,1.70
2019-03-21T15:48:21.129Z,1.37
2019-03-21T15:50:49.512Z,1.50
2019-03-21T15:53:17.832Z,1.50
2019-03-21T15:55:46.278Z,1.50
2019-03-21T15:58:14.357Z,1.33
2019-03-21T16:00:42.670Z,1.53
2019-03-21T16:03:11.285Z,1.70
2019-03-21T16:05:39.391Z,1.30
2019-03-21T16:08:09.137Z,1.67
2019-03-21T16:10:38.063Z,1.80
2019-03-21T16:13:06.108Z,1.50
2019-03-21T16:15:34.215Z,1.40
2019-03-21T16:18:02.612Z,1.70
2019-03-21T16:20:30.929Z,1.63
2019-03-21T16:22:58.944Z,1.70
2019-03-21T16:25:27.403Z,1.50
2019-03-21T16:27:55.782Z,1.60
2019-03-21T16:30:23.901Z,1.40
2019-03-21T16:32:52.222Z,1.63
2019-03-21T16:35:20.548Z,1.70
2019-03-21T16:37:48.672Z,1.53
2019-03-21T16:40:16.788Z,1.40
2019-03-21T16:42:45.111Z,1.40
2019-03-21T16:45:13.484Z,1.80
2019-03-21T16:47:41.832Z,1.90
2019-03-21T16:50:10.056Z,1.70
2019-03-21T16:52:38.266Z,1.60
2019-03-21T16:55:06.920Z,1.80
2019-03-21T16:57:35.019Z,1.80
2019-03-21T17:00:04.300Z,1.97
2019-03-21T17:02:32.516Z,2.10
2019-03-21T17:05:00.840Z,2.43
2019-03-21T17:07:28.957Z,2.20
2019-03-21T17:09:58.096Z,2.47
2019-03-21T17:12:26.902Z,2.20
2019-03-21T17:14:55.869Z,2.43
2019-03-21T17:17:24.092Z,2.43
2019-03-21T17:19:52.324Z,2.50
2019-03-21T17:22:20.724Z,2.60
2019-03-21T17:24:48.830Z,2.13
2019-03-21T17:27:16.982Z,2.20
2019-03-21T17:29:45.222Z,2.20
2019-03-21T17:32:13.523Z,2.00
2019-03-21T17:34:41.948Z,2.13
2019-03-21T17:37:10.064Z,1.90
2019-03-21T17:39:38.484Z,2.20
2019-03-21T17:42:06.531Z,1.87
2019-03-21T17:44:34.704Z,2.07
2019-03-21T17:47:02.703Z,2.40
2019-03-21T17:49:31.003Z,2.00
2019-03-21T17:51:59.020Z,2.10
2019-03-21T17:54:46.635Z,2.07
2019-03-21T17:57:14.864Z,2.03
2019-03-21T17:59:43.032Z,1.90
2019-03-21T18:02:11.364Z,2.20
2019-03-21T18:04:39.688Z,2.20
2019-03-21T18:07:08.095Z,2.10
2019-03-21T18:09:36.456Z,2.07
2019-03-21T18:12:04.887Z,2.10
2019-03-21T18:14:33.028Z,1.80
2019-03-21T18:17:01.168Z,2.13
2019-03-21T18:19:29.384Z,1.73
2019-03-21T18:21:57.690Z,2.30
2019-03-21T18:24:25.863Z,1.90
2019-03-21T18:26:53.884Z,2.20
2019-03-21T18:29:21.885Z,2.20
2019-03-21T18:31:50.311Z,1.80
2019-03-21T18:34:18.445Z,2.27
2019-03-21T18:36:46.550Z,2.23
2019-03-21T18:39:14.877Z,2.10
2019-03-21T18:41:42.992Z,2.40
2019-03-21T18:44:11.003Z,1.93
2019-03-21T18:46:39.308Z,2.20
2019-03-21T18:49:07.454Z,2.10
2019-03-21T18:51:35.777Z,2.20
2019-03-21T18:54:04.299Z,2.47
2019-03-21T18:56:32.700Z,2.47
2019-03-21T18:59:00.853Z,2.07
2019-03-21T19:01:29.344Z,2.50
2019-03-21T19:03:57.612Z,2.20
2019-03-21T19:06:25.876Z,1.43
2019-03-21T19:08:54.270Z,1.30
2019-03-21T19:11:22.620Z,1.10
2019-03-21T19:13:50.808Z,1.00
2019-03-21T19:16:19.174Z,1.30
2019-03-21T19:19:06.660Z,1.00
2019-03-21T19:21:35.090Z,1.00
2019-03-21T19:24:03.212Z,1.00
2019-03-21T19:26:31.519Z,0.87
2019-03-21T19:28:59.641Z,1.10
2019-03-21T19:31:27.940Z,1.00
2019-03-21T19:33:56.403Z,1.37
2019-03-21T19:36:24.730Z,1.87
2019-03-21T19:38:52.864Z,1.70
2019-03-21T19:41:20.976Z,1.80
2019-03-21T19:43:49.013Z,1.30
2019-03-21T19:46:17.153Z,1.60
2019-03-21T19:48:50.094Z,1.37
2019-03-21T19:51:15.388Z,1.20
2019-03-21T19:53:43.723Z,1.20
2019-03-21T19:56:12.044Z,1.63
2019-03-21T19:58:40.204Z,1.40
2019-03-21T20:01:08.504Z,1.40
2019-03-21T20:03:36.633Z,1.20
2019-03-21T20:06:05.056Z,1.03
2019-03-21T20:08:33.176Z,1.40
2019-03-21T20:11:01.394Z,1.00
2019-03-21T20:13:29.863Z,1.00
2019-03-21T20:15:58.001Z,1.10
2019-03-21T20:18:26.308Z,1.00
2019-03-21T20:20:54.512Z,0.90
2019-03-21T20:23:22.555Z,0.83
2019-03-21T20:25:50.779Z,0.70
2019-03-21T20:28:19.189Z,0.60
2019-03-21T20:30:47.325Z,0.80
2019-03-21T20:33:15.432Z,0.57
2019-03-21T20:35:43.681Z,0.50
2019-03-21T20:38:12.132Z,0.60
2019-03-21T20:40:40.173Z,0.40
2019-03-21T20:43:10.505Z,0.60
2019-03-21T20:45:39.260Z,0.50
2019-03-21T20:48:07.868Z,0.53
2019-03-21T20:50:36.144Z,0.50
2019-03-21T20:53:04.572Z,0.37
2019-03-21T20:55:32.916Z,0.60
2019-03-21T20:58:01.253Z,0.70
2019-03-21T21:00:29.691Z,0.50
2019-03-21T21:02:58.016Z,0.47
2019-03-21T21:05:26.490Z,0.70
2019-03-21T21:07:54.799Z,0.70
2019-03-21T21:10:24.447Z,0.40
2019-03-21T21:12:52.588Z,0.50
2019-03-21T21:15:20.800Z,0.50
2019-03-21T21:17:48.934Z,0.50
2019-03-21T21:20:18.664Z,0.70
2019-03-21T21:22:46.739Z,0.60
2019-03-21T21:25:14.985Z,0.60
2019-03-21T21:27:49.464Z,0.70
2019-03-21T21:30:13.712Z,0.70
2019-03-21T21:32:41.932Z,0.63
2019-03-21T21:35:10.067Z,0.67
2019-03-21T21:37:38.415Z,0.80
2019-03-21T21:40:06.952Z,0.60
2019-03-21T21:42:35.445Z,0.57
2019-03-21T21:45:04.871Z,0.77
2019-03-21T21:47:33.093Z,0.50
2019-03-21T21:50:01.205Z,0.70
2019-03-21T21:52:41.332Z,0.60
2019-03-21T21:54:59.457Z,0.70
2019-03-21T21:57:27.912Z,0.63
2019-03-21T21:59:56.236Z,0.70
2019-03-21T22:02:24.652Z,0.70
2019-03-21T22:04:53.026Z,0.60
2019-03-21T22:07:21.344Z,0.50
2019-03-21T22:09:49.900Z,0.70
2019-03-21T22:12:18.039Z,0.57
2019-03-21T22:14:46.288Z,0.70
2019-03-21T22:17:14.640Z,0.70
2019-03-21T22:19:42.972Z,0.60
2019-03-21T22:22:11.424Z,0.60
2019-03-21T22:24:39.773Z,0.57
2019-03-21T22:27:08.107Z,0.63
2019-03-21T22:29:36.543Z,0.40
2019-03-21T22:32:04.856Z,0.60
2019-03-21T22:34:32.900Z,0.50
2019-03-21T22:37:01.317Z,0.60
2019-03-21T22:39:29.636Z,0.50
2019-03-21T22:41:57.771Z,0.70
2019-03-21T22:44:26.100Z,0.67
2019-03-21T22:46:54.528Z,0.50
2019-03-21T22:49:22.840Z,0.60
2019-03-21T22:51:50.970Z,0.70
2019-03-21T22:54:19.109Z,0.40
2019-03-21T22:56:47.441Z,0.70
2019-03-21T22:59:15.802Z,0.70
2019-03-21T23:01:44.068Z,0.50
2019-03-21T23:04:12.656Z,0.60
2019-03-21T23:06:43.988Z,0.83
2019-03-21T23:09:12.132Z,0.60
2019-03-21T23:11:40.193Z,0.80
2019-03-21T23:14:08.588Z,0.70
2019-03-21T23:16:36.904Z,0.77
2019-03-21T23:19:05.253Z,0.50
2019-03-21T23:21:33.674Z,0.60
2019-03-21T23:24:01.803Z,0.50
2019-03-21T23:26:30.165Z,0.50
2019-03-21T23:28:58.511Z,0.70
2019-03-21T23:31:26.833Z,0.80
2019-03-21T23:33:55.298Z,0.50
2019-03-21T23:36:23.676Z,0.50
2019-03-21T23:38:51.716Z,0.60
2019-03-21T23:41:20.132Z,0.50
2019-03-21T23:43:48.615Z,0.40
2019-03-21T23:46:16.776Z,0.80
2019-03-21T23:48:45.022Z,0.77
2019-03-21T23:51:13.232Z,0.60
2019-03-21T23:53:41.667Z,0.60
2019-03-21T23:56:09.996Z,0.80
2019-03-21T23:58:38.426Z,0.70
